createdAt,value
2018-05-10T00:00:50.444Z,61.36
2018-05-10T00:01:50.447Z,61.55
2018-05-10T00:02:50.440Z,61.07
2018-05-10T00:03:50.420Z,60.97
2018-05-10T00:04:50.419Z,61.16
2018-05-10T00:05:50.402Z,60.59
2018-05-10T00:06:50.412Z,60.49
2018-05-10T00:07:50.404Z,60.88
2018-05-10T00:08:50.381Z,60.59
2018-05-10T00:09:50.378Z,61.16
2018-05-10T00:10:50.389Z,61.36
2018-05-10T00:11:50.399Z,61.07
2018-05-10T00:12:50.378Z,61.36
2018-05-10T00:13:50.375Z,61.65
2018-05-10T00:14:50.355Z,61.46
2018-05-10T00:15:50.338Z,61.46
2018-05-10T00:16:50.342Z,61.46
2018-05-10T00:17:50.328Z,61.84
2018-05-10T00:18:50.338Z,61.55
2018-05-10T00:19:50.317Z,61.84
2018-05-10T00:20:50.320Z,61.36
2018-05-10T00:21:50.316Z,61.36
2018-05-10T00:22:50.292Z,61.26
2018-05-10T00:23:50.294Z,61.07
2018-05-10T00:24:50.292Z,61.10
2018-05-10T00:25:50.279Z,61.26
2018-05-10T00:26:50.281Z,60.78
2018-05-10T00:27:50.265Z,61.16
2018-05-10T00:28:50.296Z,61.07
2018-05-10T00:29:50.263Z,61.55
2018-05-10T00:30:50.258Z,61.16
2018-05-10T00:31:50.258Z,61.46
2018-05-10T00:32:50.240Z,61.74
2018-05-10T00:33:50.236Z,61.36
2018-05-10T00:34:50.230Z,61.36
2018-05-10T00:35:50.220Z,61.84
2018-05-10T00:36:50.343Z,62.03
2018-05-10T00:37:50.213Z,62.23
2018-05-10T00:38:50.197Z,62.23
2018-05-10T00:39:50.193Z,61.84
2018-05-10T00:40:50.182Z,62.23
2018-05-10T00:41:50.182Z,62.23
2018-05-10T00:42:50.198Z,62.38
2018-05-10T00:43:50.173Z,62.48
2018-05-10T00:44:50.162Z,62.58
2018-05-10T00:45:50.145Z,62.87
2018-05-10T00:46:50.150Z,62.38
2018-05-10T00:47:50.179Z,62.38
2018-05-10T00:48:50.137Z,62.38
2018-05-10T00:49:50.133Z,62.87
2018-05-10T00:50:50.117Z,63.06
2018-05-10T00:51:50.150Z,63.06
2018-05-10T00:52:50.114Z,62.96
2018-05-10T00:53:50.107Z,63.15
2018-05-10T00:54:50.132Z,62.77
2018-05-10T00:55:50.091Z,62.77
2018-05-10T00:56:50.331Z,63.25
2018-05-10T00:57:50.067Z,63.64
2018-05-10T00:58:50.088Z,63.54
2018-05-10T00:59:50.226Z,63.79
2018-05-10T01:00:50.062Z,63.41
2018-05-10T01:01:50.037Z,63.41
2018-05-10T01:02:50.051Z,63.99
2018-05-10T01:03:50.040Z,63.60
2018-05-10T01:04:50.073Z,63.70
2018-05-10T01:05:50.035Z,63.79
2018-05-10T01:06:50.011Z,63.92
2018-05-10T01:07:50.016Z,63.89
2018-05-10T01:08:50.025Z,63.45
2018-05-10T01:09:50.066Z,63.99
2018-05-10T01:10:49.989Z,63.89
2018-05-10T01:11:49.985Z,63.99
2018-05-10T01:12:49.984Z,64.18
2018-05-10T01:13:49.966Z,64.28
2018-05-10T01:14:49.965Z,64.28
2018-05-10T01:15:50.000Z,64.09
2018-05-10T01:16:49.954Z,64.12
2018-05-10T01:17:49.943Z,64.47
2018-05-10T01:18:49.938Z,64.28
2018-05-10T01:19:49.938Z,64.47
2018-05-10T01:20:49.925Z,63.99
2018-05-10T01:21:49.940Z,64.09
2018-05-10T01:22:49.912Z,64.18
2018-05-10T01:23:49.932Z,64.28
2018-05-10T01:24:49.896Z,64.18
2018-05-10T01:25:49.894Z,64.18
2018-05-10T01:26:49.941Z,64.47
2018-05-10T01:27:49.877Z,64.37
2018-05-10T01:28:49.906Z,64.18
2018-05-10T01:29:49.870Z,63.99
2018-05-10T01:30:49.852Z,63.99
2018-05-10T01:31:49.850Z,64.09
2018-05-10T01:32:49.847Z,64.47
2018-05-10T01:33:49.964Z,63.99
2018-05-10T01:34:49.822Z,64.56
2018-05-10T01:35:49.823Z,64.47
2018-05-10T01:36:49.814Z,64.66
2018-05-10T01:37:49.815Z,64.18
2018-05-10T01:38:49.806Z,64.09
2018-05-10T01:39:49.831Z,64.09
2018-05-10T01:40:49.788Z,64.47
2018-05-10T01:41:49.781Z,64.60
2018-05-10T01:42:49.775Z,64.09
2018-05-10T01:43:49.779Z,64.18
2018-05-10T01:44:49.796Z,63.99
2018-05-10T01:45:49.884Z,64.66
2018-05-10T01:46:49.736Z,64.66
2018-05-10T01:47:49.727Z,64.47
2018-05-10T01:48:49.731Z,64.37
2018-05-10T01:49:49.722Z,64.18
2018-05-10T01:50:49.718Z,64.56
2018-05-10T01:51:49.729Z,63.99
2018-05-10T01:52:49.706Z,64.37
2018-05-10T01:53:49.694Z,64.28
2018-05-10T01:54:49.773Z,64.76
2018-05-10T01:55:49.696Z,63.99
2018-05-10T01:56:49.856Z,64.85
2018-05-10T01:57:49.678Z,63.89
2018-05-10T01:58:49.662Z,64.66
2018-05-10T01:59:49.662Z,63.99
2018-05-10T02:00:49.682Z,64.66
2018-05-10T02:01:49.636Z,64.76
2018-05-10T02:02:49.635Z,64.66
2018-05-10T02:03:49.627Z,64.18
2018-05-10T02:04:49.628Z,64.47
2018-05-10T02:05:49.647Z,64.18
2018-05-10T02:06:49.611Z,64.15
2018-05-10T02:07:49.600Z,64.05
2018-05-10T02:08:49.619Z,64.25
2018-05-10T02:09:49.593Z,64.47
2018-05-10T02:10:49.615Z,64.72
2018-05-10T02:11:49.565Z,64.43
2018-05-10T02:12:49.565Z,64.82
2018-05-10T02:13:49.570Z,64.72
2018-05-10T02:14:49.615Z,64.72
2018-05-10T02:15:49.585Z,64.92
2018-05-10T02:16:49.544Z,64.72
2018-05-10T02:17:49.528Z,64.92
2018-05-10T02:18:49.515Z,64.82
2018-05-10T02:19:49.526Z,64.72
2018-05-10T02:20:49.542Z,65.49
2018-05-10T02:21:49.650Z,65.30
2018-05-10T02:22:49.487Z,65.40
2018-05-10T02:23:49.489Z,65.20
2018-05-10T02:24:49.483Z,65.40
2018-05-10T02:25:49.469Z,65.69
2018-05-10T02:26:49.475Z,65.49
2018-05-10T02:27:49.468Z,66.16
2018-05-10T02:28:49.450Z,66.36
2018-05-10T02:29:49.546Z,66.26
2018-05-10T02:30:49.437Z,66.23
2018-05-10T02:31:49.440Z,66.52
2018-05-10T02:32:49.422Z,65.94
2018-05-10T02:33:49.415Z,66.52
2018-05-10T02:34:49.412Z,67.00
2018-05-10T02:35:50.189Z,66.90
2018-05-10T02:36:49.419Z,66.90
2018-05-10T02:37:49.387Z,66.80
2018-05-10T02:38:49.383Z,66.90
2018-05-10T02:39:49.373Z,67.09
2018-05-10T02:40:49.429Z,66.80
2018-05-10T02:41:49.352Z,66.90
2018-05-10T02:42:49.342Z,66.90
2018-05-10T02:43:49.344Z,66.71
2018-05-10T02:44:49.342Z,66.77
2018-05-10T02:45:49.334Z,67.09
2018-05-10T02:46:49.327Z,67.06
2018-05-10T02:47:49.304Z,66.90
2018-05-10T02:48:49.310Z,66.77
2018-05-10T02:49:49.287Z,67.25
2018-05-10T02:50:49.283Z,67.44
2018-05-10T02:51:49.323Z,67.25
2018-05-10T02:52:49.277Z,67.25
2018-05-10T02:53:49.267Z,67.92
2018-05-10T02:54:49.325Z,67.83
2018-05-10T02:55:49.260Z,67.92
2018-05-10T02:56:49.376Z,68.05
2018-05-10T02:57:49.250Z,67.38
2018-05-10T02:58:49.228Z,67.19
2018-05-10T02:59:49.219Z,67.29
2018-05-10T03:00:49.371Z,67.47
2018-05-10T03:01:49.203Z,67.67
2018-05-10T03:02:49.212Z,67.09
2018-05-10T03:03:49.187Z,67.29
2018-05-10T03:04:49.192Z,67.38
2018-05-10T03:05:49.185Z,67.67
2018-05-10T03:06:49.177Z,67.67
2018-05-10T03:07:49.197Z,67.47
2018-05-10T03:08:49.157Z,67.57
2018-05-10T03:09:49.135Z,67.38
2018-05-10T03:10:49.130Z,67.38
2018-05-10T03:11:49.138Z,67.67
2018-05-10T03:12:49.250Z,67.09
2018-05-10T03:13:49.113Z,67.38
2018-05-10T03:14:49.121Z,67.29
2018-05-10T03:15:49.100Z,67.29
2018-05-10T03:16:49.093Z,67.19
2018-05-10T03:17:49.084Z,67.19
2018-05-10T03:18:49.086Z,66.80
2018-05-10T03:19:49.066Z,66.90
2018-05-10T03:20:49.060Z,66.86
2018-05-10T03:21:49.067Z,66.67
2018-05-10T03:22:49.044Z,66.86
2018-05-10T03:23:49.117Z,67.25
2018-05-10T03:24:49.041Z,67.25
2018-05-10T03:25:49.026Z,67.35
2018-05-10T03:26:49.017Z,68.21
2018-05-10T03:27:48.997Z,67.79
2018-05-10T03:28:49.004Z,67.92
2018-05-10T03:29:49.020Z,68.50
2018-05-10T03:30:48.994Z,68.12
2018-05-10T03:31:48.978Z,67.99
2018-05-10T03:32:48.968Z,67.89
2018-05-10T03:33:48.957Z,68.08
2018-05-10T03:34:48.985Z,68.37
2018-05-10T03:35:48.941Z,68.56
2018-05-10T03:36:48.942Z,68.95
2018-05-10T03:37:48.919Z,69.23
2018-05-10T03:38:48.924Z,68.66
2018-05-10T03:39:48.954Z,68.50
2018-05-10T03:40:48.907Z,68.27
2018-05-10T03:41:48.913Z,68.37
2018-05-10T03:42:48.893Z,68.46
2018-05-10T03:43:48.884Z,68.46
2018-05-10T03:44:49.008Z,68.66
2018-05-10T03:45:48.863Z,68.46
2018-05-10T03:46:48.850Z,68.37
2018-05-10T03:47:48.849Z,68.27
2018-05-10T03:48:48.851Z,68.59
2018-05-10T03:49:48.836Z,68.75
2018-05-10T03:50:48.840Z,68.50
2018-05-10T03:51:48.820Z,68.40
2018-05-10T03:52:48.814Z,68.56
2018-05-10T03:53:48.823Z,68.37
2018-05-10T03:54:48.794Z,68.46
2018-05-10T03:55:48.788Z,68.69
2018-05-10T03:56:48.778Z,67.99
2018-05-10T03:57:48.775Z,68.18
2018-05-10T03:58:48.809Z,68.08
2018-05-10T03:59:49.724Z,68.18
2018-05-10T04:00:48.751Z,68.46
2018-05-10T04:01:48.745Z,68.56
2018-05-10T04:02:48.731Z,68.95
2018-05-10T04:03:48.772Z,68.95
2018-05-10T04:04:48.716Z,69.13
2018-05-10T04:05:48.706Z,69.81
2018-05-10T04:06:48.701Z,70.29
2018-05-10T04:07:48.698Z,70.09
2018-05-10T04:08:48.695Z,70.19
2018-05-10T04:09:48.709Z,70.76
2018-05-10T04:10:48.673Z,70.86
2018-05-10T04:11:48.706Z,70.76
2018-05-10T04:12:48.640Z,70.67
2018-05-10T04:13:48.668Z,70.86
2018-05-10T04:14:48.632Z,71.15
2018-05-10T04:15:48.632Z,71.34
2018-05-10T04:16:48.614Z,70.86
2018-05-10T04:17:48.613Z,70.96
2018-05-10T04:18:48.630Z,71.44
2018-05-10T04:19:48.620Z,71.25
2018-05-10T04:20:48.587Z,71.63
2018-05-10T04:21:48.569Z,71.72
2018-05-10T04:22:48.559Z,71.92
2018-05-10T04:23:48.564Z,72.01
2018-05-10T04:24:48.587Z,72.39
2018-05-10T04:25:48.537Z,72.49
2018-05-10T04:26:48.551Z,71.82
2018-05-10T04:27:48.596Z,72.01
2018-05-10T04:28:48.524Z,72.11
2018-05-10T04:29:48.549Z,71.63
2018-05-10T04:30:48.504Z,71.92
2018-05-10T04:31:48.494Z,71.34
2018-05-10T04:32:48.481Z,71.34
2018-05-10T04:33:48.472Z,71.15
2018-05-10T04:34:48.500Z,72.01
2018-05-10T04:35:48.623Z,71.25
2018-05-10T04:36:48.455Z,71.47
2018-05-10T04:37:48.453Z,71.09
2018-05-10T04:38:48.443Z,71.63
2018-05-10T04:39:48.439Z,71.53
2018-05-10T04:40:48.428Z,71.63
2018-05-10T04:41:48.477Z,72.11
2018-05-10T04:42:48.402Z,71.37
2018-05-10T04:43:48.399Z,71.34
2018-05-10T04:44:48.387Z,71.37
2018-05-10T04:45:48.382Z,71.28
2018-05-10T04:46:48.376Z,71.66
2018-05-10T04:47:48.433Z,71.44
2018-05-10T04:48:48.371Z,72.01
2018-05-10T04:49:48.349Z,72.20
2018-05-10T04:50:48.333Z,72.59
2018-05-10T04:51:48.334Z,72.49
2018-05-10T04:52:48.328Z,72.59
2018-05-10T04:53:48.319Z,72.49
2018-05-10T04:54:48.348Z,72.39
2018-05-10T04:55:48.295Z,72.43
2018-05-10T04:56:48.285Z,72.30
2018-05-10T04:57:48.289Z,72.20
2018-05-10T04:58:48.419Z,72.11
2018-05-10T04:59:48.282Z,72.49
2018-05-10T05:00:48.258Z,72.39
2018-05-10T05:01:48.256Z,72.59
2018-05-10T05:02:48.246Z,72.14
2018-05-10T05:03:48.244Z,72.20
2018-05-10T05:04:48.282Z,72.39
2018-05-10T05:05:48.232Z,72.59
2018-05-10T05:06:48.220Z,72.30
2018-05-10T05:07:48.204Z,72.30
2018-05-10T05:08:48.246Z,72.24
2018-05-10T05:09:48.195Z,72.49
2018-05-10T05:10:48.200Z,72.39
2018-05-10T05:11:48.180Z,72.49
2018-05-10T05:12:48.165Z,72.59
2018-05-10T05:13:48.163Z,72.20
2018-05-10T05:14:48.185Z,72.49
2018-05-10T05:15:48.148Z,73.74
2018-05-10T05:16:48.140Z,73.45
2018-05-10T05:17:48.131Z,74.02
2018-05-10T05:18:48.120Z,73.45
2018-05-10T05:19:48.173Z,72.97
2018-05-10T05:20:48.105Z,73.55
2018-05-10T05:21:48.095Z,73.61
2018-05-10T05:22:48.092Z,73.61
2018-05-10T05:23:48.084Z,74.08
2018-05-10T05:24:48.068Z,74.27
2018-05-10T05:25:48.074Z,73.99
2018-05-10T05:26:48.131Z,74.08
2018-05-10T05:27:48.046Z,74.08
2018-05-10T05:28:48.035Z,73.90
2018-05-10T05:29:48.038Z,74.08
2018-05-10T05:30:48.058Z,73.51
2018-05-10T05:31:48.005Z,73.90
2018-05-10T05:32:48.048Z,74.02
2018-05-10T05:33:47.999Z,73.99
2018-05-10T05:34:48.001Z,74.37
2018-05-10T05:35:47.994Z,74.76
2018-05-10T05:36:47.982Z,74.85
2018-05-10T05:37:48.015Z,75.52
2018-05-10T05:38:47.967Z,75.23
2018-05-10T05:39:47.956Z,75.71
2018-05-10T05:40:48.029Z,75.62
2018-05-10T05:41:47.972Z,75.90
2018-05-10T05:42:47.931Z,76.39
2018-05-10T05:43:47.916Z,76.10
2018-05-10T05:44:47.917Z,76.10
2018-05-10T05:45:47.911Z,76.10
2018-05-10T05:46:48.254Z,76.00
2018-05-10T05:47:47.896Z,76.10
2018-05-10T05:48:47.883Z,76.29
2018-05-10T05:49:47.876Z,76.29
2018-05-10T05:50:47.874Z,76.10
2018-05-10T05:51:47.860Z,76.57
2018-05-10T05:52:47.846Z,77.25
2018-05-10T05:53:47.838Z,76.67
2018-05-10T05:54:47.840Z,76.86
2018-05-10T05:55:47.818Z,76.39
2018-05-10T05:56:47.814Z,77.06
2018-05-10T05:57:47.841Z,77.63
2018-05-10T05:58:47.798Z,78.20
2018-05-10T05:59:47.795Z,77.82
2018-05-10T06:00:47.844Z,77.92
2018-05-10T06:01:47.777Z,78.49
2018-05-10T06:02:47.766Z,78.07
2018-05-10T06:03:47.762Z,78.30
2018-05-10T06:04:47.751Z,78.84
2018-05-10T06:05:47.731Z,79.32
2018-05-10T06:06:47.894Z,78.64
2018-05-10T06:07:47.737Z,77.97
2018-05-10T06:08:47.885Z,78.36
2018-05-10T06:09:47.705Z,78.17
2018-05-10T06:10:47.742Z,78.36
2018-05-10T06:11:47.693Z,79.22
2018-05-10T06:12:47.683Z,79.60
2018-05-10T06:13:47.674Z,79.60
2018-05-10T06:14:47.667Z,79.22
2018-05-10T06:15:47.754Z,78.55
2018-05-10T06:16:47.783Z,78.36
2018-05-10T06:17:47.642Z,78.78
2018-05-10T06:18:47.649Z,79.22
2018-05-10T06:19:49.716Z,79.32
2018-05-10T06:20:48.457Z,80.18
2018-05-10T06:21:48.155Z,79.93
2018-05-10T06:22:48.455Z,80.08
2018-05-10T06:23:48.284Z,80.51
2018-05-10T06:24:48.774Z,80.27
2018-05-10T06:25:48.149Z,80.22
2018-05-10T06:26:48.162Z,78.88
2018-05-10T06:27:48.282Z,79.03
2018-05-10T06:28:48.279Z,79.03
2018-05-10T06:29:48.361Z,79.07
2018-05-10T06:30:48.136Z,79.03
2018-05-10T06:31:48.580Z,78.74
2018-05-10T06:32:48.217Z,78.27
2018-05-10T06:33:48.258Z,78.27
2018-05-10T06:34:48.335Z,78.74
2018-05-10T06:35:48.037Z,78.36
2018-05-10T06:36:48.250Z,78.45
2018-05-10T06:37:48.150Z,78.64
2018-05-10T06:38:47.877Z,78.36
2018-05-10T06:39:47.952Z,78.17
2018-05-10T06:40:48.180Z,78.84
2018-05-10T06:41:47.948Z,78.27
2018-05-10T06:42:48.131Z,78.27
2018-05-10T06:43:48.124Z,78.64
2018-05-10T06:44:47.413Z,77.78
2018-05-10T06:45:47.433Z,78.55
2018-05-10T06:46:47.546Z,78.74
2018-05-10T06:47:47.590Z,78.45
2018-05-10T06:48:47.386Z,78.07
2018-05-10T06:49:47.359Z,77.97
2018-05-10T06:50:47.370Z,78.17
2018-05-10T06:51:47.367Z,77.78
2018-05-10T06:52:47.361Z,77.40
2018-05-10T06:53:47.397Z,77.40
2018-05-10T06:54:47.325Z,77.88
2018-05-10T06:55:47.324Z,78.17
2018-05-10T06:56:47.314Z,77.40
2018-05-10T06:57:47.350Z,77.78
2018-05-10T06:58:47.842Z,77.59
2018-05-10T06:59:47.287Z,78.17
2018-05-10T07:00:47.314Z,77.59
2018-05-10T07:01:47.278Z,77.59
2018-05-10T07:02:47.270Z,77.59
2018-05-10T07:03:48.172Z,77.69
2018-05-10T07:04:47.260Z,77.59
2018-05-10T07:05:47.293Z,77.59
2018-05-10T07:06:47.234Z,78.07
2018-05-10T07:07:47.233Z,77.69
2018-05-10T07:08:47.224Z,77.88
2018-05-10T07:09:47.371Z,77.97
2018-05-10T07:10:47.195Z,77.97
2018-05-10T07:11:47.191Z,78.17
2018-05-10T07:12:47.183Z,77.97
2018-05-10T07:13:47.210Z,77.88
2018-05-10T07:14:47.167Z,77.59
2018-05-10T07:15:47.316Z,77.97
2018-05-10T07:16:47.161Z,77.88
2018-05-10T07:17:47.139Z,78.27
2018-05-10T07:18:47.129Z,77.88
2018-05-10T07:19:47.174Z,77.88
2018-05-10T07:20:47.181Z,79.41
2018-05-10T07:21:47.143Z,79.22
2018-05-10T07:22:47.097Z,78.88
2018-05-10T07:23:47.095Z,78.30
2018-05-10T07:24:47.088Z,78.84
2018-05-10T07:25:47.119Z,78.49
2018-05-10T07:26:47.104Z,77.78
2018-05-10T07:27:47.066Z,78.27
2018-05-10T07:28:47.050Z,78.45
2018-05-10T07:29:47.041Z,78.55
2018-05-10T07:30:47.033Z,77.97
2018-05-10T07:31:47.090Z,77.78
2018-05-10T07:32:47.024Z,78.55
2018-05-10T07:33:47.004Z,77.97
2018-05-10T07:34:46.999Z,77.88
2018-05-10T07:35:46.996Z,78.36
2018-05-10T07:36:46.990Z,79.41
2018-05-10T07:37:47.015Z,79.26
2018-05-10T07:38:46.957Z,78.88
2018-05-10T07:39:46.999Z,78.93
2018-05-10T07:40:46.962Z,79.45
2018-05-10T07:41:46.954Z,78.40
2018-05-10T07:42:46.973Z,77.92
2018-05-10T07:43:46.972Z,77.25
2018-05-10T07:44:47.066Z,76.67
2018-05-10T07:45:47.094Z,78.59
2018-05-10T07:46:47.490Z,79.26
2018-05-10T07:47:46.917Z,78.20
2018-05-10T07:48:47.407Z,77.82
2018-05-10T07:49:47.018Z,77.06
2018-05-10T07:50:46.975Z,78.59
2018-05-10T07:51:46.889Z,77.63
2018-05-10T07:52:46.856Z,77.15
2018-05-10T07:53:46.994Z,77.34
2018-05-10T07:54:46.837Z,77.53
2018-05-10T07:55:46.833Z,77.06
2018-05-10T07:56:46.879Z,77.25
2018-05-10T07:57:47.316Z,77.63
2018-05-10T07:58:46.800Z,77.06
2018-05-10T07:59:48.915Z,77.63
2018-05-10T08:00:46.790Z,78.02
2018-05-10T08:01:46.808Z,76.57
2018-05-10T08:02:46.931Z,76.90
2018-05-10T08:03:46.778Z,76.81
2018-05-10T08:04:46.766Z,76.71
2018-05-10T08:05:46.751Z,76.52
2018-05-10T08:06:46.751Z,77.09
2018-05-10T08:07:46.761Z,78.25
2018-05-10T08:08:46.777Z,76.62
2018-05-10T08:09:46.729Z,76.14
2018-05-10T08:10:46.854Z,76.07
2018-05-10T08:11:46.814Z,75.75
2018-05-10T08:12:46.703Z,76.17
2018-05-10T08:13:46.697Z,75.12
2018-05-10T08:14:46.687Z,74.26
2018-05-10T08:15:46.722Z,74.54
2018-05-10T08:16:46.680Z,75.21
2018-05-10T08:17:46.694Z,75.40
2018-05-10T08:18:46.652Z,75.60
2018-05-10T08:19:46.710Z,75.60
2018-05-10T08:20:46.655Z,75.02
2018-05-10T08:21:46.655Z,73.77
2018-05-10T08:22:46.637Z,73.30
2018-05-10T08:23:46.622Z,74.06
2018-05-10T08:24:46.625Z,74.54
2018-05-10T08:25:46.598Z,75.31
2018-05-10T08:26:46.808Z,76.07
2018-05-10T08:27:46.596Z,75.31
2018-05-10T08:28:46.582Z,74.93
2018-05-10T08:29:46.575Z,75.31
2018-05-10T08:30:48.363Z,75.31
2018-05-10T08:31:46.576Z,75.21
2018-05-10T08:32:46.590Z,75.21
2018-05-10T08:33:46.577Z,74.93
2018-05-10T08:34:46.617Z,74.73
2018-05-10T08:35:46.532Z,75.12
2018-05-10T08:36:48.457Z,74.93
2018-05-10T08:37:46.534Z,74.64
2018-05-10T08:38:46.885Z,74.44
2018-05-10T08:39:46.508Z,74.16
2018-05-10T08:40:46.489Z,75.50
2018-05-10T08:41:46.557Z,75.31
2018-05-10T08:42:46.475Z,75.89
2018-05-10T08:43:46.476Z,74.35
2018-05-10T08:44:46.490Z,75.50
2018-05-10T08:45:46.450Z,75.35
2018-05-10T08:46:46.456Z,75.25
2018-05-10T08:47:46.451Z,76.69
2018-05-10T08:48:46.428Z,75.54
2018-05-10T08:49:46.458Z,74.39
2018-05-10T08:50:46.417Z,74.19
2018-05-10T08:51:46.432Z,74.39
2018-05-10T08:52:46.411Z,74.58
2018-05-10T08:53:46.397Z,75.15
2018-05-10T08:54:46.760Z,74.19
2018-05-10T08:55:46.395Z,73.43
2018-05-10T08:56:46.383Z,72.28
2018-05-10T08:57:46.386Z,73.14
2018-05-10T08:58:46.349Z,72.56
2018-05-10T08:59:46.365Z,71.98
2018-05-10T09:00:46.349Z,71.89
2018-05-10T09:01:46.345Z,72.28
2018-05-10T09:02:46.385Z,73.43
2018-05-10T09:03:46.325Z,71.80
2018-05-10T09:04:46.318Z,72.02
2018-05-10T09:05:46.338Z,72.02
2018-05-10T09:06:46.384Z,72.02
2018-05-10T09:07:46.303Z,71.93
2018-05-10T09:08:46.290Z,71.93
2018-05-10T09:09:46.292Z,69.81
2018-05-10T09:10:46.288Z,70.39
2018-05-10T09:11:46.273Z,70.78
2018-05-10T09:12:46.368Z,71.25
2018-05-10T09:13:46.253Z,69.95
2018-05-10T09:14:46.256Z,69.18
2018-05-10T09:15:47.859Z,69.66
2018-05-10T09:16:46.251Z,70.72
2018-05-10T09:17:46.279Z,70.23
2018-05-10T09:18:46.259Z,69.75
2018-05-10T09:19:46.226Z,70.78
2018-05-10T09:20:46.221Z,70.39
2018-05-10T09:21:46.864Z,70.20
2018-05-10T09:22:46.240Z,71.35
2018-05-10T09:23:46.237Z,71.25
2018-05-10T09:24:46.242Z,71.16
2018-05-10T09:25:46.193Z,71.19
2018-05-10T09:26:46.176Z,71.19
2018-05-10T09:27:46.213Z,70.23
2018-05-10T09:28:46.176Z,70.33
2018-05-10T09:29:46.167Z,70.52
2018-05-10T09:30:46.154Z,69.66
2018-05-10T09:31:46.157Z,70.04
2018-05-10T09:32:46.159Z,70.20
2018-05-10T09:33:46.253Z,70.90
2018-05-10T09:34:46.137Z,70.87
2018-05-10T09:35:46.134Z,70.49
2018-05-10T09:36:46.132Z,70.58
2018-05-10T09:37:46.121Z,70.58
2018-05-10T09:38:46.140Z,70.78
2018-05-10T09:39:46.102Z,72.02
2018-05-10T09:40:46.108Z,71.16
2018-05-10T09:41:46.098Z,71.45
2018-05-10T09:42:46.160Z,71.45
2018-05-10T09:43:46.529Z,71.06
2018-05-10T09:44:46.111Z,71.73
2018-05-10T09:45:46.069Z,72.22
2018-05-10T09:46:46.060Z,71.16
2018-05-10T09:47:46.071Z,71.80
2018-05-10T09:48:46.056Z,71.41
2018-05-10T09:49:46.230Z,72.08
2018-05-10T09:50:46.054Z,72.47
2018-05-10T09:51:46.033Z,72.75
2018-05-10T09:52:46.154Z,72.66
2018-05-10T09:53:46.020Z,74.01
2018-05-10T09:54:46.021Z,73.91
2018-05-10T09:55:46.885Z,74.48
2018-05-10T09:56:46.009Z,73.33
2018-05-10T09:57:46.010Z,73.52
2018-05-10T09:58:46.034Z,74.01
2018-05-10T09:59:46.033Z,73.43
2018-05-10T10:00:46.142Z,73.52
2018-05-10T10:01:45.987Z,73.81
2018-05-10T10:02:45.953Z,74.10
2018-05-10T10:03:45.958Z,73.91
2018-05-10T10:04:45.953Z,74.10
2018-05-10T10:05:45.940Z,72.08
2018-05-10T10:06:45.985Z,72.56
2018-05-10T10:07:45.930Z,72.08
2018-05-10T10:08:45.912Z,72.85
2018-05-10T10:09:45.920Z,71.89
2018-05-10T10:10:45.914Z,71.03
2018-05-10T10:11:45.953Z,70.45
2018-05-10T10:12:46.002Z,71.41
2018-05-10T10:13:45.895Z,71.31
2018-05-10T10:14:45.930Z,71.89
2018-05-10T10:15:45.900Z,70.74
2018-05-10T10:16:46.073Z,71.22
2018-05-10T10:17:45.912Z,70.84
2018-05-10T10:18:45.866Z,72.08
2018-05-10T10:19:45.853Z,72.66
2018-05-10T10:20:45.852Z,72.75
2018-05-10T10:21:46.084Z,72.18
2018-05-10T10:22:45.936Z,72.08
2018-05-10T10:23:45.836Z,72.56
2018-05-10T10:24:45.917Z,71.89
2018-05-10T10:25:45.826Z,72.56
2018-05-10T10:26:45.813Z,72.18
2018-05-10T10:27:45.808Z,72.75
2018-05-10T10:28:45.842Z,72.56
2018-05-10T10:29:45.794Z,72.56
2018-05-10T10:30:45.818Z,72.18
2018-05-10T10:31:45.783Z,71.51
2018-05-10T10:32:45.791Z,72.18
2018-05-10T10:33:45.901Z,72.75
2018-05-10T10:34:45.776Z,73.33
2018-05-10T10:35:45.767Z,72.37
2018-05-10T10:36:45.756Z,71.70
2018-05-10T10:37:45.750Z,71.12
2018-05-10T10:38:45.872Z,71.61
2018-05-10T10:39:45.749Z,71.89
2018-05-10T10:40:45.767Z,73.14
2018-05-10T10:41:45.728Z,71.80
2018-05-10T10:42:45.724Z,71.31
2018-05-10T10:43:45.701Z,71.22
2018-05-10T10:44:45.727Z,71.61
2018-05-10T10:45:45.741Z,71.51
2018-05-10T10:46:45.698Z,70.64
2018-05-10T10:47:45.685Z,70.07
2018-05-10T10:48:45.826Z,70.64
2018-05-10T10:49:45.665Z,70.26
2018-05-10T10:50:45.742Z,70.45
2018-05-10T10:51:45.662Z,70.93
2018-05-10T10:52:45.683Z,71.22
2018-05-10T10:53:45.657Z,71.98
2018-05-10T10:54:45.655Z,71.89
2018-05-10T10:55:45.644Z,71.16
2018-05-10T10:56:45.646Z,70.49
2018-05-10T10:57:45.647Z,70.36
2018-05-10T10:58:45.614Z,70.26
2018-05-10T10:59:45.617Z,70.36
2018-05-10T11:00:45.622Z,70.29
2018-05-10T11:01:45.689Z,70.84
2018-05-10T11:02:45.631Z,70.93
2018-05-10T11:03:45.594Z,70.84
2018-05-10T11:04:45.616Z,71.03
2018-05-10T11:05:45.579Z,71.03
2018-05-10T11:06:45.574Z,71.03
2018-05-10T11:07:45.695Z,70.07
2018-05-10T11:08:45.564Z,68.53
2018-05-10T11:09:45.539Z,68.34
2018-05-10T11:10:45.536Z,69.78
2018-05-10T11:11:45.535Z,69.05
2018-05-10T11:12:45.541Z,68.37
2018-05-10T11:13:45.536Z,67.61
2018-05-10T11:14:45.529Z,68.57
2018-05-10T11:15:45.553Z,70.29
2018-05-10T11:16:45.512Z,70.39
2018-05-10T11:17:45.510Z,67.90
2018-05-10T11:18:45.496Z,69.05
2018-05-10T11:19:45.498Z,69.05
2018-05-10T11:20:45.688Z,67.13
2018-05-10T11:21:45.481Z,66.55
2018-05-10T11:22:45.787Z,67.41
2018-05-10T11:23:45.487Z,68.76
2018-05-10T11:24:45.452Z,69.05
2018-05-10T11:25:45.456Z,67.99
2018-05-10T11:26:45.452Z,67.51
2018-05-10T11:27:45.441Z,68.57
2018-05-10T11:28:45.425Z,68.37
2018-05-10T11:29:45.436Z,68.37
2018-05-10T11:30:45.420Z,68.57
2018-05-10T11:31:45.549Z,67.90
2018-05-10T11:32:45.417Z,67.76
2018-05-10T11:33:45.471Z,67.47
2018-05-10T11:34:50.326Z,67.09
2018-05-10T11:35:45.392Z,68.34
2018-05-10T11:36:45.382Z,69.20
2018-05-10T11:37:48.329Z,69.30
2018-05-10T11:38:45.382Z,68.91
2018-05-10T11:39:45.419Z,69.11
2018-05-10T11:40:45.397Z,67.96
2018-05-10T11:41:45.353Z,68.50
2018-05-10T11:42:45.374Z,67.83
2018-05-10T11:43:45.465Z,68.50
2018-05-10T11:44:45.328Z,68.21
2018-05-10T11:45:45.324Z,68.69
2018-05-10T11:46:45.333Z,67.73
2018-05-10T11:47:45.311Z,68.08
2018-05-10T11:48:45.316Z,69.81
2018-05-10T11:49:45.393Z,70.57
2018-05-10T11:50:45.277Z,69.52
2018-05-10T11:51:45.269Z,69.71
2018-05-10T11:52:45.299Z,69.52
2018-05-10T11:53:45.263Z,69.62
2018-05-10T11:54:45.257Z,69.62
2018-05-10T11:55:45.245Z,69.58
2018-05-10T11:56:45.231Z,69.52
2018-05-10T11:57:45.265Z,70.29
2018-05-10T11:58:45.224Z,70.25
2018-05-10T11:59:45.210Z,69.96
2018-05-10T12:00:45.207Z,70.44
2018-05-10T12:01:45.203Z,70.25
2018-05-10T12:02:45.608Z,70.44
2018-05-10T12:03:45.186Z,70.25
2018-05-10T12:04:45.205Z,70.54
2018-05-10T12:05:45.171Z,70.83
2018-05-10T12:06:45.202Z,71.11
2018-05-10T12:07:45.571Z,71.40
2018-05-10T12:08:45.150Z,71.98
2018-05-10T12:09:45.199Z,72.36
2018-05-10T12:10:45.125Z,72.94
2018-05-10T12:11:45.173Z,72.90
2018-05-10T12:12:45.129Z,73.66
2018-05-10T12:13:45.104Z,73.57
2018-05-10T12:14:45.102Z,73.76
2018-05-10T12:15:45.245Z,74.24
2018-05-10T12:16:45.232Z,74.52
2018-05-10T12:17:45.064Z,74.43
2018-05-10T12:18:45.100Z,75.48
2018-05-10T12:19:45.097Z,75.29
2018-05-10T12:20:45.050Z,75.29
2018-05-10T12:21:45.166Z,75.48
2018-05-10T12:22:45.056Z,75.73
2018-05-10T12:23:45.021Z,76.21
2018-05-10T12:24:45.010Z,76.79
2018-05-10T12:25:44.999Z,78.13
2018-05-10T12:26:45.004Z,78.13
2018-05-10T12:27:45.007Z,77.94
2018-05-10T12:28:44.970Z,78.32
2018-05-10T12:29:44.963Z,78.89
2018-05-10T12:30:44.949Z,78.70
2018-05-10T12:31:44.948Z,79.08
2018-05-10T12:32:44.987Z,80.14
2018-05-10T12:33:44.922Z,80.29
2018-05-10T12:34:45.323Z,80.00
2018-05-10T12:35:44.923Z,79.81
2018-05-10T12:36:44.919Z,80.58
2018-05-10T12:37:45.272Z,81.57
2018-05-10T12:38:44.946Z,81.10
2018-05-10T12:39:44.885Z,81.48
2018-05-10T12:40:44.880Z,81.10
2018-05-10T12:41:44.866Z,81.00
2018-05-10T12:42:45.608Z,81.00
2018-05-10T12:43:44.852Z,80.81
2018-05-10T12:44:45.131Z,80.90
2018-05-10T12:45:45.101Z,80.33
2018-05-10T12:46:44.833Z,79.95
2018-05-10T12:47:45.201Z,80.14
2018-05-10T12:48:44.898Z,80.62
2018-05-10T12:49:44.830Z,80.81
2018-05-10T12:50:44.784Z,81.20
2018-05-10T12:51:44.836Z,81.29
2018-05-10T12:52:44.760Z,81.96